Time;durP1;ratioP1;P1;durP2;ratioP2;P2;SDS_P1;SDS_P2;PMS_P1;PMS_P2;Temp;Humidity;BMP_temperature;BMP_pressure;BME280_temperature;BME280_humidity;BME280_pressure;Samples;Min_cycle;Max_cycle;Signal;HPM_P1;HPM_P2
2022/04/19 00:01:03;;;;;;;8.27;5.43;;;7.30;99.90;;;;;;5088804;28;20043;-42
2022/04/19 00:03:28;;;;;;;8.77;5.50;;;7.20;99.90;;;;;;5088285;28;20493;-42
2022/04/19 00:05:54;;;;;;;8.93;6.07;;;7.20;99.90;;;;;;5088857;28;20024;-42
2022/04/19 00:08:19;;;;;;;11.38;6.05;;;7.20;99.90;;;;;;5088826;28;20024;-42
2022/04/19 00:10:45;;;;;;;11.73;6.25;;;7.20;99.90;;;;;;5088779;28;20020;-42
2022/04/19 00:13:13;;;;;;;9.45;5.90;;;7.10;99.90;;;;;;5088118;28;20160;-41
2022/04/19 00:15:39;;;;;;;11.77;6.75;;;7.10;99.90;;;;;;5087504;28;20043;-42
2022/04/19 00:18:06;;;;;;;11.90;6.18;;;7.10;99.90;;;;;;5088833;28;20504;-41
2022/04/19 00:20:33;;;;;;;10.20;5.72;;;7.10;99.90;;;;;;5088739;28;20402;-43
2022/04/19 00:22:59;;;;;;;13.15;6.10;;;7.00;99.90;;;;;;5087891;28;20411;-43
2022/04/19 00:25:25;;;;;;;11.00;5.93;;;6.90;99.90;;;;;;5088563;28;20103;-42
2022/04/19 00:27:50;;;;;;;10.07;6.18;;;6.90;99.90;;;;;;5078763;28;20028;-42
2022/04/19 00:30:16;;;;;;;12.60;6.25;;;6.90;99.90;;;;;;5088631;28;20099;-43
2022/04/19 00:32:42;;;;;;;11.52;5.95;;;6.80;99.90;;;;;;5087146;28;20024;-44
2022/04/19 00:35:10;;;;;;;10.80;5.90;;;6.80;99.90;;;;;;5086537;28;20028;-42
2022/04/19 00:37:36;;;;;;;10.15;6.47;;;6.70;99.90;;;;;;5087137;28;20509;-41
2022/04/19 00:40:07;;;;;;;8.63;5.15;;;6.80;99.90;;;;;;5088345;28;20038;-42
2022/04/19 00:42:34;;;;;;;8.77;5.85;;;6.80;99.90;;;;;;5090540;28;20107;-42
2022/04/19 00:45:04;;;;;;;9.90;5.90;;;6.70;99.90;;;;;;5090573;28;20020;-42
2022/04/19 00:47:32;;;;;;;13.15;6.05;;;6.60;99.90;;;;;;5091463;28;20055;-42
2022/04/19 00:50:02;;;;;;;8.50;6.07;;;6.70;99.90;;;;;;5091235;28;20023;-42
2022/04/19 00:52:32;;;;;;;9.03;6.17;;;6.70;99.90;;;;;;5092391;28;20028;-41
2022/04/19 00:54:59;;;;;;;8.80;5.60;;;6.70;99.90;;;;;;5091706;28;20120;-42
2022/04/19 00:57:26;;;;;;;10.27;6.20;;;6.60;99.90;;;;;;5074441;28;20516;-42
2022/04/19 00:59:56;;;;;;;7.82;6.30;;;6.70;99.90;;;;;;5083473;28;20074;-42
2022/04/19 01:02:23;;;;;;;8.75;5.47;;;6.60;99.90;;;;;;5092407;28;20066;-42
2022/04/19 01:04:49;;;;;;;9.32;5.70;;;6.60;99.90;;;;;;5091722;28;20028;-42
2022/04/19 01:07:18;;;;;;;8.10;5.40;;;6.50;99.90;;;;;;5091984;28;20020;-42
2022/04/19 01:09:44;;;;;;;11.07;5.88;;;6.50;99.90;;;;;;5092462;28;20020;-41
2022/04/19 01:14:55;;;;;;;7.53;4.78;;;6.40;99.90;;;;;;5092036;28;20522;-40
2022/04/19 01:17:22;;;;;;;11.25;5.75;;;6.50;99.90;;;;;;5090925;28;20353;-41
2022/04/19 01:19:48;;;;;;;6.95;5.05;;;6.50;99.90;;;;;;5092037;28;20022;-40
2022/04/19 01:22:14;;;;;;;12.05;5.63;;;6.40;99.90;;;;;;5091883;28;20035;-41
2022/04/19 01:24:42;;;;;;;11.50;5.28;;;6.40;99.90;;;;;;5089855;28;20028;-41
2022/04/19 01:27:09;;;;;;;7.05;4.93;;;6.40;99.90;;;;;;5075125;28;20012;-40
2022/04/19 01:29:35;;;;;;;6.97;4.57;;;6.40;99.90;;;;;;5083530;28;20093;-40
2022/04/19 01:32:05;;;;;;;8.02;4.50;;;6.30;99.90;;;;;;5090390;28;20027;-42
2022/04/19 01:34:30;;;;;;;9.93;4.80;;;6.30;99.90;;;;;;5091019;28;20013;-41
2022/04/19 01:36:56;;;;;;;8.55;4.30;;;6.30;99.90;;;;;;5091523;28;20031;-41
2022/04/19 01:40:16;;;;;;;6.00;4.20;;;6.40;99.90;;;;;;5091672;28;20178;-40
2022/04/19 01:42:08;;;;;;;9.52;4.15;;;6.30;99.90;;;;;;5091063;28;20032;-42
2022/04/19 01:44:34;;;;;;;4.88;3.80;;;6.30;99.90;;;;;;5090865;28;20111;-41
2022/04/19 01:47:07;;;;;;;6.13;4.28;;;6.30;99.90;;;;;;5091488;28;20504;-41
2022/04/19 01:49:36;;;;;;;8.02;5.35;;;6.40;99.90;;;;;;5092069;28;20103;-41
2022/04/19 01:52:02;;;;;;;6.53;4.20;;;6.40;99.90;;;;;;5091576;28;20047;-42
2022/04/19 01:54:29;;;;;;;6.47;4.53;;;6.30;99.90;;;;;;5090835;28;20259;-41
2022/04/19 01:56:55;;;;;;;7.75;4.13;;;6.40;99.90;;;;;;5074595;28;20016;-41
2022/04/19 01:59:20;;;;;;;6.38;4.50;;;6.40;99.90;;;;;;5082597;28;20038;-40
2022/04/19 02:01:48;;;;;;;6.68;4.10;;;6.40;99.90;;;;;;5091309;28;20115;-41
2022/04/19 02:04:14;;;;;;;6.72;3.97;;;6.40;99.90;;;;;;5089160;28;20023;-41
2022/04/19 02:06:40;;;;;;;9.13;4.78;;;6.40;99.90;;;;;;5075097;28;20078;-41
2022/04/19 02:09:06;;;;;;;5.32;4.47;;;6.30;99.90;;;;;;5059823;28;20016;-40
2022/04/19 02:11:31;;;;;;;5.93;4.32;;;6.40;99.90;;;;;;5061160;28;20048;-41
2022/04/19 02:13:57;;;;;;;6.50;4.53;;;6.30;99.90;;;;;;5058348;28;20067;-40
2022/04/19 02:16:22;;;;;;;8.07;4.90;;;6.30;99.90;;;;;;5061643;28;20394;-42
2022/04/19 02:18:52;;;;;;;7.38;4.75;;;6.30;99.90;;;;;;5059272;28;20060;-41
2022/04/19 02:21:18;;;;;;;6.40;4.57;;;6.20;99.90;;;;;;5060699;28;20027;-41
2022/04/19 02:23:43;;;;;;;7.10;5.00;;;6.20;99.90;;;;;;5060452;28;20115;-41
2022/04/19 02:26:09;;;;;;;6.47;4.35;;;6.20;99.90;;;;;;5059902;28;20021;-42
2022/04/19 02:28:34;;;;;;;6.63;4.88;;;6.20;99.90;;;;;;5064492;28;20017;-42
2022/04/19 02:31:00;;;;;;;9.32;5.25;;;6.20;99.90;;;;;;5060407;28;20088;-40
2022/04/19 02:33:25;;;;;;;5.55;4.40;;;6.20;99.90;;;;;;5058883;28;20074;-41
2022/04/19 02:35:52;;;;;;;6.35;4.45;;;6.10;99.90;;;;;;5060566;28;20028;-41
2022/04/19 02:38:18;;;;;;;6.88;4.78;;;6.10;99.90;;;;;;5049897;28;20490;-40
2022/04/19 02:40:43;;;;;;;7.47;4.53;;;6.10;99.90;;;;;;5056149;28;20170;-40
2022/04/19 02:43:09;;;;;;;7.25;4.97;;;6.10;99.90;;;;;;5058106;28;20033;-41
2022/04/19 02:45:35;;;;;;;6.88;4.57;;;6.10;99.90;;;;;;5061148;28;20031;-41
2022/04/19 02:48:06;;;;;;;6.38;4.53;;;6.10;99.90;;;;;;5058183;28;20116;-41
2022/04/19 02:50:50;;;;;;;6.35;4.30;;;6.10;99.90;;;;;;5060779;28;20033;-43
2022/04/19 02:53:16;;;;;;;6.10;4.68;;;6.00;99.90;;;;;;5060066;28;20583;-42
2022/04/19 02:55:42;;;;;;;7.22;4.72;;;6.00;99.90;;;;;;5057949;28;20033;-43
2022/04/19 02:58:07;;;;;;;5.80;4.53;;;5.90;99.90;;;;;;5060734;28;20470;-43
2022/04/19 03:00:33;;;;;;;7.78;4.25;;;5.90;99.90;;;;;;5060911;28;20119;-42
2022/04/19 03:02:58;;;;;;;13.88;5.13;;;5.90;99.90;;;;;;5063497;28;20032;-41
2022/04/19 03:05:24;;;;;;;6.82;4.35;;;5.80;99.90;;;;;;5069476;28;20090;-43
2022/04/19 03:07:49;;;;;;;8.07;5.03;;;5.80;99.90;;;;;;5069797;28;20096;-42
2022/04/19 03:10:16;;;;;;;5.95;4.50;;;5.80;99.90;;;;;;5068362;28;20020;-43
2022/04/19 03:12:43;;;;;;;5.57;4.10;;;5.70;99.90;;;;;;5069677;28;20028;-43
2022/04/19 03:15:10;;;;;;;8.02;4.30;;;5.70;99.90;;;;;;5068969;28;20267;-42
2022/04/19 03:17:35;;;;;;;7.78;4.40;;;5.70;99.90;;;;;;5052205;28;20033;-43
2022/04/19 03:20:01;;;;;;;5.45;4.25;;;5.70;99.90;;;;;;5068609;28;20370;-43
2022/04/19 03:27:41;;;;;;;5.15;3.78;;;5.70;99.90;;;;;;5069601;28;20033;-41
2022/04/19 03:27:56;;;;;;;6.88;4.43;;;5.70;99.90;;;;;;5070482;28;20039;-42
2022/04/19 03:30:22;;;;;;;7.13;3.53;;;5.70;99.90;;;;;;5084863;28;20016;-42
2022/04/19 03:32:52;;;;;;;4.25;3.45;;;5.70;99.90;;;;;;5088204;28;20020;-42
2022/04/19 03:35:18;;;;;;;5.35;3.63;;;5.70;99.90;;;;;;5088167;28;20115;-42
2022/04/19 03:37:44;;;;;;;4.47;3.40;;;5.70;99.90;;;;;;5089548;28;20103;-41
2022/04/19 03:40:10;;;;;;;3.75;3.28;;;5.70;99.90;;;;;;5089368;28;20396;-42
2022/04/19 03:42:35;;;;;;;5.57;3.60;;;5.70;99.90;;;;;;5083094;28;20592;-42
2022/04/19 03:45:01;;;;;;;6.05;3.30;;;5.60;99.90;;;;;;5081047;28;20111;-45
2022/04/19 03:47:26;;;;;;;4.53;3.17;;;5.60;99.90;;;;;;5089369;28;20047;-42
2022/04/19 03:49:52;;;;;;;5.97;3.58;;;5.60;99.90;;;;;;5089545;28;20485;-41
2022/04/19 03:52:17;;;;;;;5.47;3.70;;;5.60;99.90;;;;;;5059652;28;20260;-44
2022/04/19 03:54:43;;;;;;;6.80;3.83;;;5.60;99.90;;;;;;5056251;28;20440;-42
2022/04/19 03:57:10;;;;;;;7.45;3.97;;;5.50;99.90;;;;;;5061705;28;20429;-40
2022/04/19 03:59:38;;;;;;;5.78;3.53;;;5.50;99.90;;;;;;5080613;28;20114;-41
2022/04/19 04:02:04;;;;;;;6.57;3.97;;;5.50;99.90;;;;;;5072195;28;20104;-41
2022/04/19 04:04:34;;;;;;;5.03;3.60;;;5.50;99.90;;;;;;5068306;28;20028;-40
2022/04/19 04:07:01;;;;;;;4.93;3.08;;;5.40;99.90;;;;;;5068477;28;20067;-40
2022/04/19 04:09:35;;;;;;;5.95;3.60;;;5.40;99.90;;;;;;5067397;28;20060;-42
2022/04/19 04:12:05;;;;;;;6.05;3.33;;;5.40;99.90;;;;;;5068497;28;20032;-42
2022/04/19 04:14:31;;;;;;;4.93;2.85;;;5.30;99.90;;;;;;5067979;28;20031;-41
2022/04/19 04:16:57;;;;;;;5.47;3.35;;;5.30;99.90;;;;;;5056129;28;20460;-40
2022/04/19 04:19:23;;;;;;;5.45;3.95;;;5.30;99.90;;;;;;5048828;28;20053;-41
2022/04/19 04:21:49;;;;;;;6.55;3.97;;;5.30;99.90;;;;;;5062917;28;20067;-40
2022/04/19 04:24:14;;;;;;;5.82;3.75;;;5.30;99.90;;;;;;5068315;28;20028;-41
2022/04/19 04:26:40;;;;;;;7.10;3.40;;;5.30;99.90;;;;;;5061000;28;20025;-40
2022/04/19 04:29:05;;;;;;;4.63;3.22;;;5.20;99.90;;;;;;5070747;28;20468;-40
2022/04/19 04:31:31;;;;;;;5.40;3.00;;;5.20;99.90;;;;;;5058753;28;20017;-41
2022/04/19 04:33:57;;;;;;;4.82;3.35;;;5.20;99.90;;;;;;5059062;28;20024;-40
2022/04/19 04:36:23;;;;;;;4.50;3.17;;;5.20;99.90;;;;;;5060464;28;20135;-42
2022/04/19 04:38:48;;;;;;;5.13;3.67;;;5.20;99.90;;;;;;5057412;28;20017;-41
2022/04/19 04:41:14;;;;;;;5.85;3.90;;;5.20;99.90;;;;;;5058052;28;20028;-40
2022/04/19 04:43:40;;;;;;;5.65;3.60;;;5.10;99.90;;;;;;5060996;28;20024;-41
2022/04/19 04:51:34;;;;;;;9.50;4.47;;;5.20;99.90;;;;;;5068434;28;20027;-40
2022/04/19 04:53:59;;;;;;;7.75;3.20;;;5.20;99.90;;;;;;5067878;28;20407;-40
2022/04/19 04:56:25;;;;;;;6.63;3.30;;;5.20;99.90;;;;;;5063483;28;20055;-40
2022/04/19 04:58:51;;;;;;;5.18;3.55;;;5.20;99.90;;;;;;5080253;28;20123;-40
2022/04/19 05:01:17;;;;;;;7.18;3.83;;;5.20;99.90;;;;;;5089933;28;20434;-40
2022/04/19 05:03:42;;;;;;;5.25;3.65;;;5.30;99.90;;;;;;5089407;28;20028;-40
2022/04/19 05:06:08;;;;;;;7.97;3.00;;;5.30;99.90;;;;;;5083253;28;20463;-40
2022/04/19 05:08:33;;;;;;;5.20;3.50;;;5.40;99.90;;;;;;5049960;28;20025;-40
2022/04/19 05:10:59;;;;;;;7.53;3.67;;;5.50;99.90;;;;;;5049909;28;20033;-40
2022/04/19 05:13:24;;;;;;;5.70;3.35;;;5.60;99.90;;;;;;5048918;28;20025;-40
2022/04/19 05:15:50;;;;;;;5.60;3.30;;;5.60;99.90;;;;;;5049945;28;20088;-40
2022/04/19 05:18:15;;;;;;;6.40;3.53;;;5.60;99.90;;;;;;5049783;28;20567;-40
2022/04/19 05:20:42;;;;;;;6.38;3.33;;;5.70;99.90;;;;;;5055561;28;20033;-41
2022/04/19 05:23:08;;;;;;;6.68;3.40;;;5.70;99.90;;;;;;5055948;28;20136;-40
2022/04/19 05:25:33;;;;;;;4.40;3.20;;;5.80;99.90;;;;;;5056010;28;20310;-40
2022/04/19 05:27:59;;;;;;;6.45;3.40;;;5.80;99.90;;;;;;5064670;28;20477;-40
2022/04/19 05:30:24;;;;;;;4.20;3.22;;;5.90;99.90;;;;;;5084368;28;20036;-41
2022/04/19 05:32:50;;;;;;;3.92;3.17;;;5.90;99.90;;;;;;5077103;28;20426;-42
2022/04/19 05:35:15;;;;;;;5.07;3.25;;;6.00;99.90;;;;;;5070129;28;20024;-41
2022/04/19 05:37:41;;;;;;;7.07;3.35;;;6.10;99.90;;;;;;5066888;28;20032;-40
2022/04/19 05:40:07;;;;;;;3.45;2.75;;;6.20;99.90;;;;;;5071015;28;20333;-42
2022/04/19 05:42:33;;;;;;;7.47;3.30;;;6.20;99.90;;;;;;5069971;28;20025;-42
2022/04/19 05:44:58;;;;;;;9.75;3.40;;;6.30;99.90;;;;;;5063025;28;20281;-41
2022/04/19 05:47:24;;;;;;;5.03;2.90;;;6.30;99.90;;;;;;5070916;28;20386;-42
2022/04/19 05:49:49;;;;;;;6.15;3.00;;;6.40;99.90;;;;;;5070671;28;20524;-41
2022/04/19 05:52:15;;;;;;;4.38;2.55;;;6.40;99.90;;;;;;5071137;28;20363;-41
2022/04/19 05:54:41;;;;;;;4.03;2.65;;;6.40;99.90;;;;;;5069947;28;20032;-41
2022/04/19 05:57:09;;;;;;;3.75;2.55;;;6.50;99.90;;;;;;5069733;28;20020;-42
2022/04/19 05:59:34;;;;;;;6.18;3.22;;;6.50;99.90;;;;;;5082601;28;20469;-41
2022/04/19 06:04:53;;;;;;;3.55;2.70;;;6.50;99.90;;;;;;5090361;28;20111;-41
2022/04/19 06:07:19;;;;;;;2.75;2.20;;;6.60;99.90;;;;;;5090171;28;20099;-42
2022/04/19 06:09:45;;;;;;;5.18;3.08;;;6.60;99.90;;;;;;5076714;28;20124;-43
2022/04/19 06:12:10;;;;;;;4.53;2.83;;;6.60;99.90;;;;;;5082519;28;20095;-41
2022/04/19 06:14:36;;;;;;;3.50;2.35;;;6.60;99.90;;;;;;5090572;28;20032;-41
2022/04/19 06:17:02;;;;;;;5.43;2.60;;;6.70;99.90;;;;;;5091310;28;20464;-41
2022/04/19 06:19:28;;;;;;;3.78;2.50;;;6.80;99.90;;;;;;5090930;28;20032;-42
2022/04/19 06:21:55;;;;;;;5.95;2.10;;;6.80;99.90;;;;;;5090960;28;20024;-42
2022/04/19 06:24:20;;;;;;;4.30;2.55;;;6.90;99.90;;;;;;5090326;28;20388;-41
2022/04/19 06:26:46;;;;;;;3.88;2.95;;;6.90;99.20;;;;;;5090551;28;20125;-42
2022/04/19 06:29:11;;;;;;;4.55;2.88;;;6.90;99.10;;;;;;5091063;28;20081;-41
2022/04/19 06:31:37;;;;;;;3.15;2.30;;;6.90;98.80;;;;;;5089241;28;20036;-45
2022/04/19 06:34:02;;;;;;;3.90;2.30;;;6.90;98.90;;;;;;5090226;28;20028;-41
2022/04/19 06:36:28;;;;;;;4.45;2.35;;;6.90;98.90;;;;;;5090654;28;20036;-42
2022/04/19 06:38:53;;;;;;;4.05;2.28;;;6.90;99.40;;;;;;5087467;28;20028;-43
2022/04/19 06:41:19;;;;;;;2.72;2.17;;;6.90;99.90;;;;;;5074578;28;20550;-42
2022/04/19 06:43:45;;;;;;;10.90;2.55;;;6.90;99.00;;;;;;5070551;28;20402;-42
2022/04/19 06:46:12;;;;;;;2.63;2.20;;;7.00;98.00;;;;;;5063463;28;20024;-42
2022/04/19 06:48:38;;;;;;;12.07;2.83;;;7.00;98.40;;;;;;5068053;28;20444;-43
2022/04/19 06:51:04;;;;;;;8.43;2.97;;;7.10;98.60;;;;;;5060872;28;20017;-41
2022/04/19 06:53:30;;;;;;;7.07;2.85;;;7.20;98.30;;;;;;5059621;28;20024;-42
2022/04/19 06:55:58;;;;;;;4.07;2.50;;;7.20;98.20;;;;;;5057643;28;20070;-42
2022/04/19 06:58:24;;;;;;;20.67;10.57;;;7.30;98.10;;;;;;5062527;28;20078;-41
2022/04/19 07:00:50;;;;;;;66.07;33.30;;;7.40;97.90;;;;;;5061484;28;20032;-42
2022/04/19 07:03:16;;;;;;;14.15;6.53;;;7.50;97.20;;;;;;5060090;28;20051;-42
2022/04/19 07:05:41;;;;;;;3.85;2.30;;;7.60;96.80;;;;;;5069899;28;20033;-42
2022/04/19 07:08:07;;;;;;;5.50;3.10;;;7.60;95.60;;;;;;5069617;28;20516;-43
2022/04/19 07:10:36;;;;;;;6.78;2.70;;;7.80;94.40;;;;;;5069510;28;20016;-42
2022/04/19 07:13:02;;;;;;;4.53;2.55;;;7.80;93.70;;;;;;5067675;28;20024;-41
2022/04/19 07:15:27;;;;;;;4.10;2.65;;;7.90;93.40;;;;;;5070019;28;20401;-42
2022/04/19 07:17:53;;;;;;;5.15;3.25;;;7.90;92.90;;;;;;5068555;28;20035;-41
2022/04/19 07:28:35;;;;;;;5.93;3.45;;;8.60;91.10;;;;;;5064804;28;20445;-42
2022/04/19 07:31:04;;;;;;;5.50;3.77;;;8.90;89.80;;;;;;5049769;28;20021;-43
2022/04/19 07:33:37;;;;;;;4.47;2.88;;;9.10;89.30;;;;;;5049101;28;20086;-41
2022/04/19 07:36:06;;;;;;;11.55;4.05;;;9.20;88.80;;;;;;5049869;28;20021;-41
2022/04/19 07:38:32;;;;;;;7.07;3.15;;;9.20;88.30;;;;;;5049558;28;20052;-41
2022/04/19 07:40:59;;;;;;;5.00;3.05;;;9.40;88.70;;;;;;5049821;28;20025;-42
2022/04/19 07:43:24;;;;;;;3.90;3.38;;;9.50;87.70;;;;;;5048305;28;20024;-41
2022/04/19 07:45:50;;;;;;;5.97;3.38;;;9.60;87.60;;;;;;5049140;28;20016;-49
2022/04/19 07:48:16;;;;;;;5.40;3.95;;;9.70;86.20;;;;;;5049298;28;20410;-48
2022/04/19 07:50:43;;;;;;;5.80;3.50;;;9.70;86.40;;;;;;5049149;28;20021;-47
2022/04/19 07:53:09;;;;;;;6.65;3.40;;;9.90;82.80;;;;;;5048923;28;20098;-50
2022/04/19 07:55:35;;;;;;;5.80;3.40;;;10.20;83.30;;;;;;5048930;28;20017;-49
2022/04/19 07:58:01;;;;;;;7.40;3.78;;;10.60;81.10;;;;;;5068106;28;20031;-49
2022/04/19 08:00:27;;;;;;;6.18;3.50;;;12.00;77.00;;;;;;5084927;28;20039;-46
2022/04/19 08:02:57;;;;;;;4.28;3.55;;;13.40;73.80;;;;;;5088658;28;20024;-47
2022/04/19 08:05:26;;;;;;;6.40;4.30;;;14.70;66.70;;;;;;5089597;28;20027;-51
2022/04/19 08:07:52;;;;;;;6.15;3.20;;;15.70;58.50;;;;;;5089168;28;20017;-48
2022/04/19 08:10:19;;;;;;;5.15;3.58;;;16.70;58.90;;;;;;5088956;28;20016;-48
2022/04/19 08:12:45;;;;;;;4.22;3.35;;;18.00;53.80;;;;;;5087522;28;20149;-48
2022/04/19 08:15:11;;;;;;;3.97;2.83;;;19.30;47.60;;;;;;5081976;28;20039;-48
2022/04/19 08:17:37;;;;;;;3.97;3.25;;;19.90;49.20;;;;;;5048269;28;20029;-48
2022/04/19 08:20:04;;;;;;;4.75;3.20;;;20.90;45.70;;;;;;5048546;28;20040;-49
2022/04/19 08:22:30;;;;;;;24.08;19.10;;;21.40;43.40;;;;;;5048498;28;20029;-49
2022/04/19 08:24:55;;;;;;;20.17;15.75;;;22.50;41.30;;;;;;5047954;28;20579;-50
2022/04/19 08:27:22;;;;;;;5.93;3.25;;;23.10;41.30;;;;;;5054326;28;20409;-47
2022/04/19 08:29:48;;;;;;;5.90;2.70;;;23.20;40.40;;;;;;5075611;28;20142;-48
2022/04/19 08:32:14;;;;;;;3.22;2.75;;;23.40;38.60;;;;;;5068685;28;20023;-51
2022/04/19 08:34:40;;;;;;;3.95;2.88;;;23.70;40.20;;;;;;5067673;28;20174;-51
2022/04/19 08:37:07;;;;;;;2.45;2.20;;;24.60;38.30;;;;;;5068437;28;20075;-49
2022/04/19 08:39:33;;;;;;;4.85;3.05;;;25.70;36.40;;;;;;5066954;28;20058;-50
2022/04/19 08:41:59;;;;;;;3.63;2.60;;;25.10;36.70;;;;;;5068307;28;20387;-47
2022/04/19 08:44:25;;;;;;;3.25;2.50;;;25.00;36.00;;;;;;5067581;28;20078;-48
2022/04/19 08:46:55;;;;;;;3.13;2.60;;;25.90;35.50;;;;;;5068270;28;20021;-49
2022/04/19 08:49:21;;;;;;;4.65;2.70;;;26.00;35.40;;;;;;5066830;28;20094;-48
2022/04/19 08:51:47;;;;;;;2.75;2.35;;;26.50;34.40;;;;;;5068424;28;20436;-50
2022/04/19 08:59:41;;;;;;;2.85;2.00;;;27.20;33.40;;;;;;5060489;28;20059;-50
2022/04/19 09:02:17;;;;;;;3.35;2.10;;;27.50;33.20;;;;;;5057766;28;20490;-48
2022/04/19 09:04:43;;;;;;;2.65;1.95;;;27.30;33.10;;;;;;5060811;28;20448;-50
2022/04/19 09:07:08;;;;;;;4.25;2.47;;;26.80;33.00;;;;;;5061740;28;20028;-49
2022/04/19 09:09:35;;;;;;;6.03;2.55;;;26.70;33.60;;;;;;5063136;28;20149;-49
2022/04/19 09:12:12;;;;;;;2.85;2.33;;;27.00;34.50;;;;;;5061050;28;20025;-49
2022/04/19 09:14:53;;;;;;;3.50;2.17;;;25.50;35.30;;;;;;5060999;28;20032;-48
2022/04/19 09:17:30;;;;;;;2.65;2.33;;;26.50;35.00;;;;;;5062121;28;20038;-49
2022/04/19 09:20:11;;;;;;;4.85;2.50;;;27.00;35.50;;;;;;5061330;28;20017;-49
2022/04/19 09:22:37;;;;;;;2.30;2.10;;;27.80;33.20;;;;;;5061374;28;20025;-49
2022/04/19 09:25:15;;;;;;;3.22;1.88;;;26.60;34.10;;;;;;5060078;28;20108;-49
2022/04/19 09:27:46;;;;;;;3.05;2.00;;;26.30;33.90;;;;;;5066458;28;20545;-50
2022/04/19 09:30:31;;;;;;;6.35;2.65;;;26.70;34.70;;;;;;5064702;28;20263;-48
2022/04/19 09:33:05;;;;;;;4.68;2.28;;;27.00;33.40;;;;;;5060734;28;20028;-51
2022/04/19 09:35:32;;;;;;;3.70;1.92;;;27.30;33.60;;;;;;5061154;28;20028;-49
2022/04/19 09:37:58;;;;;;;5.10;2.10;;;27.80;32.30;;;;;;5062636;28;20280;-51
2022/04/19 09:40:34;;;;;;;3.17;2.10;;;28.50;32.40;;;;;;5060793;28;20014;-48
2022/04/19 09:43:11;;;;;;;2.85;1.88;;;29.30;30.90;;;;;;5060481;28;20028;-48
2022/04/19 09:45:55;;;;;;;3.90;2.08;;;28.60;32.00;;;;;;5059912;28;20039;-48
2022/04/19 09:48:30;;;;;;;2.63;1.70;;;28.90;30.70;;;;;;5062432;28;20023;-48
2022/04/19 09:51:05;;;;;;;2.17;1.60;;;29.10;30.90;;;;;;5053850;28;20535;-50
2022/04/19 09:53:45;;;;;;;2.55;1.80;;;29.10;33.00;;;;;;5051393;28;20104;-49
2022/04/19 09:56:21;;;;;;;2.58;1.90;;;28.20;31.00;;;;;;5070165;28;20078;-49
2022/04/19 09:58:48;;;;;;;2.20;1.73;;;28.40;31.10;;;;;;5054211;28;20025;-50
2022/04/19 10:09:34;;;;;;;2.10;1.80;;;28.90;31.60;;;;;;5071111;28;20458;-48
2022/04/19 10:12:04;;;;;;;4.47;1.90;;;28.40;30.00;;;;;;5070978;28;20100;-51
2022/04/19 10:14:31;;;;;;;3.33;2.05;;;28.20;30.50;;;;;;5068850;28;20032;-48
2022/04/19 10:17:02;;;;;;;2.47;1.70;;;27.80;30.80;;;;;;5070917;28;20052;-50
2022/04/19 10:19:29;;;;;;;3.00;1.60;;;27.60;31.00;;;;;;5069502;28;20025;-52
2022/04/19 10:21:58;;;;;;;5.45;1.45;;;28.10;30.70;;;;;;5070844;28;21434;-52
2022/04/19 10:24:27;;;;;;;2.53;1.87;;;28.60;30.70;;;;;;5070749;28;20082;-49
2022/04/19 10:26:52;;;;;;;2.08;1.67;;;28.50;31.10;;;;;;5071379;28;20025;-49
2022/04/19 10:29:23;;;;;;;3.75;2.15;;;28.60;30.00;;;;;;5059870;28;20021;-50
2022/04/19 10:32:28;;;;;;;6.03;1.50;;;28.70;30.10;;;;;;5062054;28;20021;-51
2022/04/19 10:35:00;;;;;;;3.03;2.25;;;29.00;30.90;;;;;;5050394;28;20054;-50
2022/04/19 10:37:26;;;;;;;2.90;1.95;;;28.90;30.00;;;;;;5061789;28;20025;-52
2022/04/19 10:39:58;;;;;;;2.83;2.25;;;28.40;29.80;;;;;;5061384;28;20432;-49
2022/04/19 10:42:32;;;;;;;3.05;1.70;;;28.60;31.10;;;;;;5065685;28;20024;-50
2022/04/19 10:44:58;;;;;;;2.53;2.00;;;28.70;30.50;;;;;;5062288;28;20075;-50
2022/04/19 10:47:25;;;;;;;2.08;1.55;;;28.20;30.00;;;;;;5069258;28;20016;-49
2022/04/19 10:50:03;;;;;;;3.50;2.20;;;28.30;30.60;;;;;;5072246;28;20035;-47
2022/04/19 10:52:40;;;;;;;3.97;1.50;;;29.10;30.30;;;;;;5072092;28;20098;-47
2022/04/19 10:55:21;;;;;;;33.10;29.55;;;28.90;32.00;;;;;;5071510;28;20103;-47
2022/04/19 11:00:34;;;;;;;1.60;1.50;;;29.20;30.90;;;;;;5076337;28;20034;-50
2022/04/19 11:03:05;;;;;;;4.05;1.55;;;28.80;29.60;;;;;;5064595;28;20032;-50
2022/04/19 11:05:41;;;;;;;2.45;1.50;;;28.40;29.40;;;;;;5061358;28;20029;-47
2022/04/19 11:08:30;;;;;;;3.08;2.00;;;28.60;29.70;;;;;;5060896;28;20627;-49
2022/04/19 11:10:55;;;;;;;4.43;1.83;;;28.00;29.70;;;;;;5059635;28;20021;-47
2022/04/19 11:13:22;;;;;;;3.75;1.80;;;28.40;29.80;;;;;;5061153;28;20024;-51
2022/04/19 11:16:03;;;;;;;1.60;1.45;;;29.20;29.90;;;;;;5059371;28;20094;-47
2022/04/19 11:18:34;;;;;;;1.92;1.40;;;28.70;30.00;;;;;;5056788;28;20557;-47
2022/04/19 11:21:04;;;;;;;2.78;1.90;;;28.50;30.20;;;;;;5058821;28;20039;-48
2022/04/19 11:23:44;;;;;;;2.28;1.50;;;27.70;31.10;;;;;;5053592;28;20612;-47
2022/04/19 11:26:35;;;;;;;4.18;2.10;;;27.70;30.90;;;;;;5056840;28;20083;-49
2022/04/19 11:29:09;;;;;;;4.65;2.08;;;29.10;30.00;;;;;;5061555;28;20069;-49
2022/04/19 11:31:36;;;;;;;3.22;2.17;;;28.70;30.00;;;;;;5065172;28;20025;-50
2022/04/19 11:34:14;;;;;;;2.30;1.50;;;28.60;30.00;;;;;;5056231;28;20092;-49
2022/04/19 11:36:40;;;;;;;2.35;2.13;;;28.70;30.00;;;;;;5067263;28;20375;-49
2022/04/19 11:39:06;;;;;;;1.73;1.63;;;28.90;30.50;;;;;;5068914;28;20056;-47
2022/04/19 11:47:02;;;;;;;2.80;1.67;;;27.70;31.60;;;;;;5058751;28;20444;-50
2022/04/19 11:49:30;;;;;;;1.30;1.20;;;27.00;30.00;;;;;;5065624;28;20124;-48
2022/04/19 11:51:57;;;;;;;34.45;29.52;;;28.20;29.50;;;;;;5068918;28;20577;-50
2022/04/19 11:54:32;;;;;;;4.88;4.00;;;28.00;30.80;;;;;;5068298;28;20034;-48
2022/04/19 11:57:06;;;;;;;2.60;1.52;;;28.00;29.90;;;;;;5069010;28;20443;-48
2022/04/19 11:59:38;;;;;;;1.67;1.40;;;27.70;28.80;;;;;;5061113;28;20028;-51
2022/04/19 12:02:11;;;;;;;2.55;1.70;;;28.10;29.30;;;;;;5060402;28;20034;-48
2022/04/19 12:04:36;;;;;;;2.47;1.70;;;28.00;29.60;;;;;;5056918;28;20556;-50
2022/04/19 12:07:02;;;;;;;3.17;1.50;;;27.20;30.30;;;;;;5061170;28;20016;-48
2022/04/19 12:09:30;;;;;;;2.40;1.40;;;27.30;31.10;;;;;;5059795;28;20397;-50
2022/04/19 12:11:56;;;;;;;3.80;1.90;;;26.60;31.10;;;;;;5058821;28;20358;-49
2022/04/19 12:14:32;;;;;;;1.67;1.55;;;25.70;31.70;;;;;;5058014;28;20017;-52
2022/04/19 12:17:03;;;;;;;2.22;1.75;;;25.20;33.50;;;;;;5056312;28;20021;-47
2022/04/19 12:19:41;;;;;;;2.05;1.35;;;24.90;32.20;;;;;;5050683;28;20090;-48
2022/04/19 12:22:18;;;;;;;2.50;1.50;;;24.30;33.20;;;;;;5050575;28;20029;-51
2022/04/19 12:24:50;;;;;;;3.42;1.77;;;23.80;34.90;;;;;;5049886;28;20070;-50
2022/04/19 12:27:26;;;;;;;2.83;1.90;;;23.40;34.80;;;;;;5050502;28;20017;-49
2022/04/19 12:30:02;;;;;;;1.80;1.35;;;23.20;34.80;;;;;;5069506;28;20035;-48
2022/04/19 12:32:49;;;;;;;3.90;2.13;;;23.10;34.50;;;;;;5086228;28;20020;-52
2022/04/19 12:35:16;;;;;;;1.73;1.63;;;22.90;35.50;;;;;;5089614;28;20048;-50
2022/04/19 12:37:42;;;;;;;6.05;2.03;;;22.70;34.40;;;;;;5089672;28;20016;-51
2022/04/19 12:40:08;;;;;;;2.20;1.70;;;22.40;35.20;;;;;;5090478;28;20035;-47
2022/04/19 12:42:49;;;;;;;3.63;1.63;;;22.10;36.70;;;;;;5090332;28;20369;-48
2022/04/19 12:45:14;;;;;;;3.15;1.73;;;21.90;35.60;;;;;;5089702;28;20016;-51
2022/04/19 12:47:50;;;;;;;1.75;1.60;;;22.00;35.70;;;;;;5090317;28;20111;-48
2022/04/19 12:50:19;;;;;;;5.40;1.70;;;21.90;36.70;;;;;;5090408;28;20028;-49
2022/04/19 12:52:45;;;;;;;2.65;1.45;;;21.50;37.80;;;;;;5090237;28;20337;-48
2022/04/19 12:55:11;;;;;;;4.22;1.60;;;21.10;39.50;;;;;;5089271;28;20025;-48
2022/04/19 13:00:59;;;;;;;4.13;1.77;;;21.50;37.40;;;;;;5070238;28;20031;-48
2022/04/19 13:03:25;;;;;;;3.03;1.58;;;21.50;38.80;;;;;;5058771;28;20029;-48
2022/04/19 13:14:23;;;;;;;3.10;1.50;;;21.40;39.40;;;;;;4998588;28;20284;-48
2022/04/19 13:16:49;;;;;;;2.35;1.50;;;21.10;38.20;;;;;;4996487;28;20117;-49
2022/04/19 13:19:14;;;;;;;1.10;1.00;;;21.10;38.30;;;;;;4994270;28;20452;-52
2022/04/19 13:21:40;;;;;;;3.08;1.20;;;20.70;37.90;;;;;;4998069;28;20066;-56
2022/04/19 13:24:06;;;;;;;4.38;1.35;;;20.90;39.40;;;;;;4972316;28;20593;-52
2022/04/19 13:26:32;;;;;;;3.70;1.75;;;20.40;38.50;;;;;;5055766;28;20040;-51
2022/04/19 13:28:58;;;;;;;2.65;1.33;;;20.60;39.10;;;;;;5059107;28;20017;-51
2022/04/19 13:31:32;;;;;;;1.52;1.20;;;20.60;40.70;;;;;;5055003;28;20112;-51
2022/04/19 13:33:58;;;;;;;2.45;1.20;;;20.70;40.30;;;;;;5053955;28;20516;-51
2022/04/19 13:36:24;;;;;;;1.35;1.08;;;20.50;40.20;;;;;;5054255;28;20032;-51
2022/04/19 13:38:49;;;;;;;2.67;1.30;;;20.50;39.90;;;;;;5057367;28;20033;-48
2022/04/19 13:41:15;;;;;;;3.80;1.88;;;20.30;41.00;;;;;;5057961;28;20028;-49
2022/04/19 13:43:40;;;;;;;4.45;1.50;;;20.50;40.80;;;;;;5057391;28;20411;-49
2022/04/19 13:46:06;;;;;;;3.22;1.42;;;20.60;40.70;;;;;;5055235;28;20144;-50
2022/04/19 13:48:33;;;;;;;1.20;1.10;;;20.50;39.40;;;;;;5055457;28;20099;-48
2022/04/19 13:50:59;;;;;;;3.33;1.52;;;20.80;42.80;;;;;;5051139;28;20433;-51
2022/04/19 13:53:25;;;;;;;2.25;1.10;;;20.60;38.70;;;;;;5050749;28;20052;-49